RYR98KN LIRP-LICJ
Flight info
| Callsign | RYR98KN |
|---|---|
| Flight time | 0h 57m |
| Altitude | 370 |
| Route | DOCME M729 ELB DCT VELAD DCT TINTO DCT RONAB DCT GIANO |
| Aircraft | B738/M-V/N |
Departure
| Time | 2026-04-23 19:35 |
|---|---|
| Airport | Pisa International Airport (LIRP) |
Arrival
| Time | 2026-04-23 20:32 |
|---|---|
| Airport | Falcone–Borsellino Airport (LICJ) |
| Time | Latitude | Longitude | Altitude | Speed | Heading |
|---|---|---|---|---|---|
| 2026-04-23 19:01 | 43.69763 | 10.39976 | 10 ft | 0 kts | 9° |
| 2026-04-23 19:02 | 43.69745 | 10.40031 | 10 ft | 0 kts | 9° |
| 2026-04-23 19:26 | 43.69699 | 10.40012 | 13 ft | 4 kts | 12° |
| 2026-04-23 19:26 | 43.69683 | 10.40015 | 10 ft | 4 kts | 298° |
| 2026-04-23 19:27 | 43.69685 | 10.40080 | 12 ft | 4 kts | 232° |
| 2026-04-23 19:27 | 43.69696 | 10.40101 | 13 ft | 0 kts | 244° |
| 2026-04-23 19:30 | 43.69692 | 10.40090 | 14 ft | 2 kts | 244° |
| 2026-04-23 19:30 | 43.69685 | 10.40071 | 11 ft | 5 kts | 239° |
| 2026-04-23 19:30 | 43.69560 | 10.40070 | 12 ft | 9 kts | 170° |
| 2026-04-23 19:31 | 43.69501 | 10.40082 | 10 ft | 8 kts | 172° |
| 2026-04-23 19:31 | 43.69444 | 10.40093 | 11 ft | 8 kts | 172° |
| 2026-04-23 19:31 | 43.69389 | 10.40108 | 10 ft | 8 kts | 160° |
| 2026-04-23 19:31 | 43.69352 | 10.40163 | 9 ft | 8 kts | 127° |
| 2026-04-23 19:32 | 43.69336 | 10.40191 | 9 ft | 0 kts | 127° |
| 2026-04-23 19:32 | 43.69320 | 10.40220 | 9 ft | 11 kts | 127° |
| 2026-04-23 19:32 | 43.69273 | 10.40305 | 7 ft | 5 kts | 128° |
| 2026-04-23 19:33 | 43.69234 | 10.40306 | 8 ft | 7 kts | 205° |
| 2026-04-23 19:33 | 43.69222 | 10.40295 | 8 ft | 1 kts | 217° |
| 2026-04-23 19:33 | 43.69219 | 10.40292 | 7 ft | 2 kts | 217° |
| 2026-04-23 19:34 | 43.69169 | 10.40239 | 7 ft | 17 kts | 217° |
| 2026-04-23 19:34 | 43.68888 | 10.39951 | 6 ft | 85 kts | 217° |
| 2026-04-23 19:34 | 43.67329 | 10.38286 | 233 ft | 175 kts | 218° |
| 2026-04-23 19:35 | 43.66344 | 10.37365 | 1070 ft | 170 kts | 217° |
| 2026-04-23 19:35 | 43.65346 | 10.36352 | 1536 ft | 192 kts | 219° |
| 2026-04-23 19:35 | 43.64213 | 10.35170 | 1754 ft | 214 kts | 218° |
| 2026-04-23 19:35 | 43.62976 | 10.33917 | 2041 ft | 225 kts | 218° |
| 2026-04-23 19:36 | 43.61710 | 10.32638 | 2502 ft | 231 kts | 217° |
| 2026-04-23 19:36 | 43.60412 | 10.31305 | 3072 ft | 234 kts | 217° |
| 2026-04-23 19:36 | 43.59031 | 10.30081 | 3564 ft | 241 kts | 202° |
| 2026-04-23 19:36 | 43.57370 | 10.29304 | 3760 ft | 261 kts | 196° |
| 2026-04-23 19:37 | 43.55597 | 10.28539 | 4167 ft | 272 kts | 196° |
| 2026-04-23 19:37 | 43.53765 | 10.27727 | 4824 ft | 279 kts | 196° |
| 2026-04-23 19:37 | 43.51908 | 10.26883 | 5597 ft | 283 kts | 195° |
| 2026-04-23 19:37 | 43.50018 | 10.26006 | 6347 ft | 289 kts | 195° |
| 2026-04-23 19:38 | 43.48091 | 10.25101 | 7053 ft | 295 kts | 195° |
| 2026-04-23 19:38 | 43.46143 | 10.24176 | 7818 ft | 297 kts | 196° |
| 2026-04-23 19:38 | 43.44197 | 10.23246 | 8485 ft | 305 kts | 197° |
| 2026-04-23 19:38 | 43.42110 | 10.22250 | 8697 ft | 330 kts | 197° |
| 2026-04-23 19:39 | 43.39868 | 10.21176 | 8898 ft | 353 kts | 197° |
| 2026-04-23 19:39 | 43.37477 | 10.20028 | 9109 ft | 373 kts | 198° |
| 2026-04-23 19:39 | 43.34980 | 10.18826 | 9596 ft | 384 kts | 198° |
| 2026-04-23 19:39 | 43.32443 | 10.17603 | 10246 ft | 388 kts | 198° |
| 2026-04-23 19:40 | 43.30751 | 10.16788 | 10688 ft | 390 kts | 198° |
| 2026-04-23 19:40 | 43.28194 | 10.15559 | 11337 ft | 393 kts | 198° |
| 2026-04-23 19:40 | 43.25592 | 10.14310 | 11971 ft | 397 kts | 198° |
| 2026-04-23 19:40 | 43.22109 | 10.12640 | 12800 ft | 402 kts | 198° |
| 2026-04-23 19:41 | 43.20315 | 10.11781 | 13228 ft | 405 kts | 198° |
| 2026-04-23 19:41 | 43.17643 | 10.10506 | 13858 ft | 409 kts | 197° |
| 2026-04-23 19:41 | 43.14897 | 10.09713 | 14369 ft | 411 kts | 180° |
| 2026-04-23 19:41 | 43.12044 | 10.10221 | 14969 ft | 407 kts | 160° |
| 2026-04-23 19:42 | 43.09513 | 10.11792 | 15556 ft | 405 kts | 148° |
| 2026-04-23 19:42 | 43.07055 | 10.13712 | 16071 ft | 409 kts | 147° |
| 2026-04-23 19:42 | 43.04567 | 10.15666 | 16580 ft | 414 kts | 147° |
| 2026-04-23 19:42 | 43.02050 | 10.17631 | 17115 ft | 417 kts | 148° |
| 2026-04-23 19:43 | 42.99511 | 10.19592 | 17658 ft | 420 kts | 148° |
| 2026-04-23 19:43 | 42.96952 | 10.21549 | 18199 ft | 424 kts | 148° |
| 2026-04-23 19:43 | 42.94362 | 10.23516 | 18667 ft | 427 kts | 148° |
| 2026-04-23 19:43 | 42.91755 | 10.25490 | 19113 ft | 430 kts | 148° |
| 2026-04-23 19:44 | 42.89128 | 10.27475 | 19568 ft | 433 kts | 148° |
| 2026-04-23 19:44 | 42.86485 | 10.29469 | 20010 ft | 436 kts | 148° |
| 2026-04-23 19:44 | 42.83817 | 10.31481 | 20449 ft | 438 kts | 148° |
| 2026-04-23 19:44 | 42.81165 | 10.33480 | 20869 ft | 441 kts | 148° |
| 2026-04-23 19:45 | 42.78469 | 10.35512 | 21300 ft | 444 kts | 148° |
| 2026-04-23 19:45 | 42.75757 | 10.37552 | 21714 ft | 447 kts | 148° |
| 2026-04-23 19:45 | 42.73014 | 10.39597 | 22148 ft | 449 kts | 150° |
| 2026-04-23 19:45 | 42.70148 | 10.41381 | 22558 ft | 453 kts | 155° |
| 2026-04-23 19:46 | 42.67209 | 10.42989 | 22937 ft | 456 kts | 156° |
| 2026-04-23 19:46 | 42.64241 | 10.44551 | 23318 ft | 459 kts | 156° |
| 2026-04-23 19:46 | 42.61251 | 10.46119 | 23694 ft | 462 kts | 156° |
| 2026-04-23 19:46 | 42.58247 | 10.47708 | 24007 ft | 464 kts | 156° |
| 2026-04-23 19:47 | 42.55239 | 10.49319 | 24334 ft | 465 kts | 156° |
| 2026-04-23 19:47 | 42.52226 | 10.50947 | 24676 ft | 467 kts | 156° |
| 2026-04-23 19:47 | 42.49201 | 10.52589 | 25013 ft | 468 kts | 156° |
| 2026-04-23 19:47 | 42.46210 | 10.54216 | 25295 ft | 470 kts | 156° |
| 2026-04-23 19:48 | 42.43160 | 10.55874 | 25572 ft | 473 kts | 156° |
| 2026-04-23 19:48 | 42.40103 | 10.57534 | 25856 ft | 475 kts | 156° |
| 2026-04-23 19:48 | 42.37024 | 10.59204 | 26123 ft | 477 kts | 156° |
| 2026-04-23 19:48 | 42.33930 | 10.60879 | 26394 ft | 479 kts | 156° |
| 2026-04-23 19:49 | 42.30821 | 10.62559 | 26668 ft | 481 kts | 156° |
| 2026-04-23 19:49 | 42.27706 | 10.64241 | 26938 ft | 482 kts | 156° |
| 2026-04-23 19:49 | 42.24590 | 10.65922 | 27268 ft | 482 kts | 156° |
| 2026-04-23 19:49 | 42.21483 | 10.67595 | 27670 ft | 481 kts | 156° |
| 2026-04-23 19:50 | 42.18384 | 10.69263 | 28091 ft | 479 kts | 156° |
| 2026-04-23 19:50 | 42.15329 | 10.70905 | 28467 ft | 478 kts | 156° |
| 2026-04-23 19:50 | 42.12238 | 10.72566 | 28816 ft | 478 kts | 156° |
| 2026-04-23 19:50 | 42.09150 | 10.74225 | 29178 ft | 478 kts | 156° |
| 2026-04-23 19:51 | 42.06055 | 10.75884 | 29532 ft | 477 kts | 156° |
| 2026-04-23 19:51 | 42.02970 | 10.77535 | 29913 ft | 476 kts | 156° |
| 2026-04-23 19:51 | 41.99901 | 10.79175 | 30280 ft | 476 kts | 156° |
| 2026-04-23 19:51 | 41.96820 | 10.80819 | 30573 ft | 475 kts | 156° |
| 2026-04-23 19:52 | 41.93746 | 10.82458 | 30845 ft | 475 kts | 156° |
| 2026-04-23 19:52 | 41.90671 | 10.84097 | 31130 ft | 475 kts | 156° |
| 2026-04-23 19:52 | 41.87601 | 10.85732 | 31432 ft | 474 kts | 156° |
| 2026-04-23 19:52 | 41.84543 | 10.87359 | 31754 ft | 472 kts | 156° |
| 2026-04-23 19:53 | 41.81492 | 10.88980 | 32037 ft | 472 kts | 156° |
| 2026-04-23 19:53 | 41.78437 | 10.90602 | 32287 ft | 472 kts | 156° |
| 2026-04-23 19:53 | 41.75388 | 10.92220 | 32556 ft | 472 kts | 156° |
| 2026-04-23 19:53 | 41.72372 | 10.93818 | 32835 ft | 471 kts | 156° |
| 2026-04-23 19:54 | 41.69324 | 10.95431 | 33113 ft | 470 kts | 156° |
| 2026-04-23 19:54 | 41.66278 | 10.97042 | 33372 ft | 470 kts | 156° |
| 2026-04-23 19:54 | 41.63249 | 10.98641 | 33708 ft | 467 kts | 156° |
| 2026-04-23 19:54 | 41.60231 | 11.00234 | 34070 ft | 465 kts | 156° |
| 2026-04-23 19:55 | 41.57234 | 11.01814 | 34350 ft | 463 kts | 156° |
| 2026-04-23 19:55 | 41.54235 | 11.03394 | 34548 ft | 463 kts | 156° |
| 2026-04-23 19:55 | 41.51232 | 11.04976 | 34705 ft | 464 kts | 156° |
| 2026-04-23 19:55 | 41.48229 | 11.06554 | 34878 ft | 464 kts | 156° |
| 2026-04-23 19:56 | 41.45224 | 11.08131 | 35093 ft | 464 kts | 156° |
| 2026-04-23 19:56 | 41.42223 | 11.09704 | 35273 ft | 464 kts | 156° |
| 2026-04-23 19:56 | 41.39215 | 11.11280 | 35424 ft | 465 kts | 156° |
| 2026-04-23 19:56 | 41.36206 | 11.12855 | 35599 ft | 465 kts | 156° |
| 2026-04-23 19:57 | 41.33192 | 11.14431 | 35795 ft | 464 kts | 156° |
| 2026-04-23 19:57 | 41.30188 | 11.16001 | 35974 ft | 464 kts | 156° |
| 2026-04-23 19:57 | 41.27221 | 11.17550 | 36127 ft | 465 kts | 156° |
| 2026-04-23 19:57 | 41.24079 | 11.19189 | 36298 ft | 465 kts | 156° |
| 2026-04-23 19:58 | 41.21188 | 11.20696 | 36459 ft | 465 kts | 156° |
| 2026-04-23 19:58 | 41.18165 | 11.22270 | 36565 ft | 466 kts | 156° |
| 2026-04-23 19:58 | 41.15136 | 11.23845 | 36706 ft | 466 kts | 156° |
| 2026-04-23 19:58 | 41.12115 | 11.25415 | 36882 ft | 466 kts | 156° |
| 2026-04-23 19:59 | 41.09128 | 11.26965 | 37040 ft | 466 kts | 157° |
| 2026-04-23 19:59 | 41.06109 | 11.28530 | 37146 ft | 467 kts | 157° |
| 2026-04-23 19:59 | 41.03073 | 11.30103 | 37157 ft | 469 kts | 157° |
| 2026-04-23 20:00 | 40.96962 | 11.33265 | 37163 ft | 473 kts | 157° |
| 2026-04-23 20:00 | 40.90804 | 11.36444 | 37167 ft | 476 kts | 157° |
| 2026-04-23 20:01 | 40.84623 | 11.39628 | 37167 ft | 478 kts | 157° |
| 2026-04-23 20:01 | 40.78448 | 11.42802 | 37158 ft | 478 kts | 157° |
| 2026-04-23 20:02 | 40.72243 | 11.45986 | 37157 ft | 478 kts | 157° |
| 2026-04-23 20:02 | 40.66046 | 11.49159 | 37156 ft | 476 kts | 157° |
| 2026-04-23 20:03 | 40.59907 | 11.52297 | 37153 ft | 475 kts | 157° |
| 2026-04-23 20:03 | 40.53748 | 11.55438 | 37162 ft | 473 kts | 157° |
| 2026-04-23 20:04 | 40.47608 | 11.58564 | 37164 ft | 472 kts | 157° |
| 2026-04-23 20:04 | 40.41483 | 11.61676 | 37160 ft | 471 kts | 157° |
| 2026-04-23 20:05 | 40.35390 | 11.64766 | 37162 ft | 471 kts | 157° |
| 2026-04-23 20:05 | 40.29283 | 11.67856 | 37176 ft | 471 kts | 157° |
| 2026-04-23 20:06 | 40.23163 | 11.70948 | 37171 ft | 472 kts | 157° |
| 2026-04-23 20:06 | 40.17023 | 11.74044 | 37170 ft | 473 kts | 157° |
| 2026-04-23 20:07 | 40.10896 | 11.77127 | 37164 ft | 475 kts | 157° |
| 2026-04-23 20:07 | 40.04712 | 11.80233 | 37163 ft | 476 kts | 157° |
| 2026-04-23 20:08 | 39.98505 | 11.83344 | 37161 ft | 478 kts | 157° |
| 2026-04-23 20:08 | 39.92316 | 11.86441 | 37002 ft | 482 kts | 157° |
| 2026-04-23 20:08 | 39.89159 | 11.88019 | 36470 ft | 487 kts | 157° |
| 2026-04-23 20:09 | 39.86001 | 11.89600 | 35935 ft | 483 kts | 156° |
| 2026-04-23 20:09 | 39.82897 | 11.91265 | 35410 ft | 480 kts | 154° |
| 2026-04-23 20:09 | 39.79828 | 11.92999 | 34803 ft | 480 kts | 153° |
| 2026-04-23 20:09 | 39.76780 | 11.94755 | 34227 ft | 478 kts | 153° |
| 2026-04-23 20:10 | 39.74764 | 11.95918 | 33933 ft | 475 kts | 153° |
| 2026-04-23 20:10 | 39.70784 | 11.98197 | 33368 ft | 467 kts | 153° |
| 2026-04-23 20:10 | 39.67822 | 11.99878 | 32851 ft | 464 kts | 153° |
| 2026-04-23 20:10 | 39.64926 | 12.01513 | 32221 ft | 464 kts | 153° |
| 2026-04-23 20:11 | 39.61955 | 12.03183 | 31493 ft | 466 kts | 153° |
| 2026-04-23 20:11 | 39.59014 | 12.04832 | 30763 ft | 468 kts | 153° |
| 2026-04-23 20:11 | 39.56005 | 12.06517 | 29882 ft | 473 kts | 153° |
| 2026-04-23 20:11 | 39.52938 | 12.08233 | 28901 ft | 476 kts | 153° |
| 2026-04-23 20:12 | 39.49888 | 12.09936 | 27924 ft | 479 kts | 153° |
| 2026-04-23 20:12 | 39.46854 | 12.11629 | 26953 ft | 482 kts | 153° |
| 2026-04-23 20:12 | 39.43762 | 12.13353 | 25975 ft | 485 kts | 153° |
| 2026-04-23 20:12 | 39.40653 | 12.15083 | 25152 ft | 485 kts | 154° |
| 2026-04-23 20:13 | 39.37569 | 12.16796 | 24554 ft | 479 kts | 154° |
| 2026-04-23 20:13 | 39.34530 | 12.18483 | 23985 ft | 473 kts | 154° |
| 2026-04-23 20:13 | 39.31515 | 12.20156 | 23366 ft | 468 kts | 154° |
| 2026-04-23 20:13 | 39.28544 | 12.21803 | 22790 ft | 461 kts | 154° |
| 2026-04-23 20:14 | 39.25609 | 12.23430 | 22189 ft | 456 kts | 154° |
| 2026-04-23 20:14 | 39.22713 | 12.25034 | 21575 ft | 452 kts | 154° |
| 2026-04-23 20:14 | 39.19835 | 12.26627 | 20968 ft | 448 kts | 154° |
| 2026-04-23 20:14 | 39.16985 | 12.28203 | 20384 ft | 444 kts | 154° |
| 2026-04-23 20:15 | 39.14155 | 12.29767 | 19802 ft | 441 kts | 154° |
| 2026-04-23 20:15 | 39.11345 | 12.31319 | 19208 ft | 438 kts | 154° |
| 2026-04-23 20:15 | 39.08578 | 12.32845 | 18678 ft | 435 kts | 154° |
| 2026-04-23 20:15 | 39.05805 | 12.34373 | 18050 ft | 433 kts | 154° |
| 2026-04-23 20:16 | 39.03041 | 12.35895 | 17406 ft | 431 kts | 154° |
| 2026-04-23 20:16 | 39.00296 | 12.37405 | 16774 ft | 428 kts | 154° |
| 2026-04-23 20:16 | 38.97563 | 12.38907 | 16188 ft | 425 kts | 154° |
| 2026-04-23 20:16 | 38.94853 | 12.40396 | 15596 ft | 422 kts | 154° |
| 2026-04-23 20:17 | 38.92155 | 12.41877 | 15022 ft | 420 kts | 154° |
| 2026-04-23 20:17 | 38.89483 | 12.43342 | 14601 ft | 415 kts | 154° |
| 2026-04-23 20:17 | 38.86857 | 12.44779 | 14234 ft | 409 kts | 154° |
| 2026-04-23 20:17 | 38.84264 | 12.46267 | 13652 ft | 407 kts | 153° |
| 2026-04-23 20:18 | 38.81702 | 12.47809 | 13055 ft | 405 kts | 152° |
| 2026-04-23 20:18 | 38.79169 | 12.49356 | 12474 ft | 402 kts | 152° |
| 2026-04-23 20:18 | 38.76654 | 12.50891 | 11910 ft | 399 kts | 152° |
| 2026-04-23 20:18 | 38.74183 | 12.52393 | 11354 ft | 397 kts | 153° |
| 2026-04-23 20:19 | 38.71686 | 12.53902 | 10797 ft | 394 kts | 153° |
| 2026-04-23 20:19 | 38.69211 | 12.55391 | 10344 ft | 391 kts | 153° |
| 2026-04-23 20:19 | 38.66762 | 12.56861 | 10217 ft | 384 kts | 153° |
| 2026-04-23 20:19 | 38.64369 | 12.58294 | 10085 ft | 373 kts | 153° |
| 2026-04-23 20:20 | 38.62067 | 12.59670 | 10033 ft | 358 kts | 153° |
| 2026-04-23 20:20 | 38.59857 | 12.60991 | 10016 ft | 342 kts | 153° |
| 2026-04-23 20:20 | 38.57741 | 12.62256 | 10010 ft | 328 kts | 153° |
| 2026-04-23 20:20 | 38.55709 | 12.63470 | 9833 ft | 320 kts | 153° |
| 2026-04-23 20:21 | 38.53722 | 12.64658 | 9488 ft | 318 kts | 153° |
| 2026-04-23 20:21 | 38.51725 | 12.65853 | 9153 ft | 316 kts | 153° |
| 2026-04-23 20:21 | 38.49740 | 12.67038 | 8824 ft | 314 kts | 152° |
| 2026-04-23 20:21 | 38.47759 | 12.68220 | 8419 ft | 315 kts | 152° |
| 2026-04-23 20:22 | 38.45790 | 12.69393 | 8089 ft | 313 kts | 152° |
| 2026-04-23 20:22 | 38.43830 | 12.70559 | 7773 ft | 308 kts | 152° |
| 2026-04-23 20:22 | 38.41907 | 12.71701 | 7513 ft | 299 kts | 152° |
| 2026-04-23 20:22 | 38.40056 | 12.72798 | 7336 ft | 288 kts | 152° |
| 2026-04-23 20:23 | 38.38249 | 12.73870 | 6982 ft | 286 kts | 151° |
| 2026-04-23 20:23 | 38.36453 | 12.74936 | 6613 ft | 283 kts | 151° |
| 2026-04-23 20:23 | 38.34678 | 12.75989 | 6253 ft | 280 kts | 151° |
| 2026-04-23 20:23 | 38.32924 | 12.77029 | 5902 ft | 276 kts | 151° |
| 2026-04-23 20:24 | 38.31230 | 12.78033 | 5656 ft | 268 kts | 151° |
| 2026-04-23 20:24 | 38.29586 | 12.79005 | 5612 ft | 252 kts | 151° |
| 2026-04-23 20:24 | 38.28033 | 12.79922 | 5580 ft | 239 kts | 150° |
| 2026-04-23 20:24 | 38.26534 | 12.80809 | 5498 ft | 236 kts | 150° |
| 2026-04-23 20:25 | 38.25023 | 12.81705 | 5319 ft | 243 kts | 150° |
| 2026-04-23 20:25 | 38.23479 | 12.82583 | 5060 ft | 245 kts | 152° |
| 2026-04-23 20:25 | 38.21937 | 12.83412 | 4811 ft | 240 kts | 152° |
| 2026-04-23 20:25 | 38.20413 | 12.84229 | 4563 ft | 233 kts | 152° |
| 2026-04-23 20:26 | 38.18946 | 12.85018 | 4294 ft | 224 kts | 152° |
| 2026-04-23 20:26 | 38.17536 | 12.85778 | 4045 ft | 217 kts | 152° |
| 2026-04-23 20:26 | 38.16175 | 12.86513 | 3826 ft | 207 kts | 152° |
| 2026-04-23 20:26 | 38.14880 | 12.87210 | 3623 ft | 198 kts | 152° |
| 2026-04-23 20:27 | 38.13633 | 12.87884 | 3438 ft | 193 kts | 152° |
| 2026-04-23 20:27 | 38.12408 | 12.88588 | 3241 ft | 192 kts | 142° |
| 2026-04-23 20:27 | 38.11612 | 12.89846 | 3024 ft | 181 kts | 99° |
| 2026-04-23 20:27 | 38.11560 | 12.90874 | 2921 ft | 175 kts | 79° |
| 2026-04-23 20:28 | 38.11925 | 12.92326 | 2736 ft | 173 kts | 64° |
| 2026-04-23 20:28 | 38.12546 | 12.94161 | 2450 ft | 167 kts | 64° |
| 2026-04-23 20:28 | 38.12845 | 12.95047 | 2298 ft | 162 kts | 65° |
| 2026-04-23 20:28 | 38.13285 | 12.96351 | 2087 ft | 159 kts | 64° |
| 2026-04-23 20:29 | 38.13706 | 12.97598 | 1907 ft | 151 kts | 65° |
| 2026-04-23 20:29 | 38.14122 | 12.98829 | 1713 ft | 154 kts | 65° |
| 2026-04-23 20:29 | 38.14540 | 13.00058 | 1568 ft | 152 kts | 65° |
| 2026-04-23 20:29 | 38.14951 | 13.01280 | 1323 ft | 150 kts | 65° |
| 2026-04-23 20:30 | 38.15359 | 13.02452 | 1182 ft | 141 kts | 63° |
| 2026-04-23 20:30 | 38.16085 | 13.04828 | 805 ft | 146 kts | 64° |
| 2026-04-23 20:30 | 38.16494 | 13.06013 | 579 ft | 142 kts | 63° |
| 2026-04-23 20:31 | 38.16903 | 13.07125 | 417 ft | 138 kts | 64° |
| 2026-04-23 20:31 | 38.17291 | 13.08244 | 223 ft | 139 kts | 64° |
| 2026-04-23 20:31 | 38.17665 | 13.09348 | 67 ft | 130 kts | 70° |
| 2026-04-23 20:31 | 38.17943 | 13.10172 | 65 ft | 70 kts | 66° |
| 2026-04-23 20:32 | 38.18069 | 13.10544 | 66 ft | 29 kts | 67° |
| 2026-04-23 20:32 | 38.18137 | 13.10726 | 64 ft | 15 kts | 32° |
| 2026-04-23 20:32 | 38.18178 | 13.10645 | 63 ft | 13 kts | 276° |
| 2026-04-23 20:32 | 38.18189 | 13.10516 | 63 ft | 16 kts | 278° |
| 2026-04-23 20:33 | 38.18222 | 13.10387 | 59 ft | 15 kts | 322° |
| 2026-04-23 20:33 | 38.18235 | 13.10377 | 62 ft | 0 kts | 331° |
| 2026-04-23 20:34 | 38.18252 | 13.10365 | 59 ft | 7 kts | 331° |
| 2026-04-23 20:35 | 38.18302 | 13.10336 | 61 ft | 7 kts | 336° |
| 2026-04-23 20:35 | 38.18339 | 13.10314 | 56 ft | 5 kts | 335° |
| 2026-04-23 20:35 | 38.18363 | 13.10295 | 57 ft | 4 kts | 304° |
| 2026-04-23 20:35 | 38.18354 | 13.10270 | 64 ft | 1 kts | 218° |
| 2026-04-23 20:36 | 38.18337 | 13.10250 | 58 ft | 7 kts | 231° |
| 2026-04-23 20:36 | 38.18326 | 13.10223 | 62 ft | 3 kts | 246° |
| 2026-04-23 20:36 | 38.18324 | 13.10217 | 63 ft | 0 kts | 246° |